createdAt,value
2018-12-04T00:00:38.250Z,8.90
2018-12-04T00:03:06.140Z,8.90
2018-12-04T00:05:34.424Z,8.90
2018-12-04T00:08:02.114Z,8.90
2018-12-04T00:10:29.674Z,8.80
2018-12-04T00:12:57.256Z,8.80
2018-12-04T00:15:24.898Z,8.80
2018-12-04T00:17:52.624Z,8.80
2018-12-04T00:20:20.280Z,8.80
2018-12-04T00:22:47.870Z,8.80
2018-12-04T00:25:15.509Z,8.80
2018-12-04T00:27:43.104Z,8.80
2018-12-04T00:30:10.893Z,8.80
2018-12-04T00:32:38.464Z,8.90
2018-12-04T00:35:06.146Z,8.90
2018-12-04T00:37:33.709Z,9.00
2018-12-04T00:40:01.276Z,9.00
2018-12-04T00:42:28.963Z,9.00
2018-12-04T00:44:56.556Z,9.10
2018-12-04T00:47:24.138Z,9.10
2018-12-04T00:49:51.716Z,9.10
2018-12-04T00:52:19.253Z,9.20
2018-12-04T00:54:46.844Z,9.20
2018-12-04T00:57:14.464Z,9.20
2018-12-04T00:59:42.034Z,9.30
2018-12-04T01:02:09.576Z,9.20
2018-12-04T01:04:37.168Z,9.20
2018-12-04T01:07:04.772Z,9.20
2018-12-04T01:09:32.331Z,9.20
2018-12-04T01:12:00.065Z,9.20
2018-12-04T01:14:27.654Z,9.20
2018-12-04T01:16:55.222Z,9.20
2018-12-04T01:19:22.797Z,9.20
2018-12-04T01:21:50.403Z,9.20
2018-12-04T01:24:17.949Z,9.20
2018-12-04T01:26:45.511Z,9.20
2018-12-04T01:29:13.064Z,9.30
2018-12-04T01:31:40.785Z,9.30
2018-12-04T01:34:08.324Z,9.30
2018-12-04T01:36:35.959Z,9.30
2018-12-04T01:39:06.130Z,9.30
2018-12-04T01:41:33.738Z,9.30
2018-12-04T01:44:01.325Z,9.20
2018-12-04T01:46:28.898Z,9.20
2018-12-04T01:48:56.551Z,9.20
2018-12-04T01:51:24.104Z,9.10
2018-12-04T01:53:51.688Z,9.00
2018-12-04T01:56:19.310Z,9.10
2018-12-04T01:58:46.918Z,9.10
2018-12-04T02:01:14.496Z,9.00
2018-12-04T02:03:42.082Z,9.00
2018-12-04T02:06:09.670Z,9.00
2018-12-04T02:08:37.279Z,9.00
2018-12-04T02:11:05.202Z,9.00
2018-12-04T02:13:32.831Z,9.10
2018-12-04T02:16:00.419Z,9.10
2018-12-04T02:18:28.008Z,9.00
2018-12-04T02:20:55.564Z,9.00
2018-12-04T02:23:23.220Z,9.00
2018-12-04T02:25:50.930Z,9.00
2018-12-04T02:28:18.509Z,8.90
2018-12-04T02:30:46.116Z,8.90
2018-12-04T02:33:13.729Z,8.90
2018-12-04T02:35:41.291Z,8.80
2018-12-04T02:38:08.881Z,8.80
2018-12-04T02:40:36.498Z,8.80
2018-12-04T02:43:04.187Z,8.80
2018-12-04T02:45:31.737Z,8.80
2018-12-04T02:47:59.294Z,8.80
2018-12-04T02:50:26.867Z,8.80
2018-12-04T02:52:54.512Z,8.70
2018-12-04T02:55:22.237Z,8.60
2018-12-04T02:57:49.835Z,8.50
2018-12-04T03:00:17.449Z,8.50
2018-12-04T03:02:45.060Z,8.40
2018-12-04T03:05:12.640Z,8.40
2018-12-04T03:07:40.244Z,8.30
2018-12-04T03:10:07.933Z,8.30
2018-12-04T03:12:35.509Z,8.20
2018-12-04T03:15:03.305Z,8.20
2018-12-04T03:17:30.894Z,8.20
2018-12-04T03:19:58.458Z,8.20
2018-12-04T03:22:26.029Z,8.20
2018-12-04T03:24:53.640Z,8.20
2018-12-04T03:27:21.280Z,8.20
2018-12-04T03:29:48.855Z,8.30
2018-12-04T03:32:16.435Z,8.30
2018-12-04T03:34:44.076Z,8.30
2018-12-04T03:37:11.633Z,8.20
2018-12-04T03:39:39.178Z,8.20
2018-12-04T03:42:06.794Z,8.20
2018-12-04T03:44:34.346Z,8.20
2018-12-04T03:47:01.940Z,8.10
2018-12-04T03:49:29.561Z,8.10
2018-12-04T03:51:57.290Z,8.00
2018-12-04T03:54:24.876Z,8.00
2018-12-04T03:56:52.422Z,8.00
2018-12-04T03:59:20.038Z,7.90
2018-12-04T04:01:47.883Z,7.90
2018-12-04T04:04:15.516Z,7.80
2018-12-04T04:06:43.096Z,7.80
2018-12-04T04:09:10.700Z,7.80
2018-12-04T04:11:38.293Z,7.70
2018-12-04T04:14:05.941Z,7.70
2018-12-04T04:16:33.552Z,7.60
2018-12-04T04:19:01.152Z,7.60
2018-12-04T04:21:28.700Z,7.60
2018-12-04T04:23:56.326Z,7.50
2018-12-04T04:26:23.956Z,7.50
2018-12-04T04:28:52.029Z,7.40
2018-12-04T04:31:19.713Z,7.40
2018-12-04T04:33:47.418Z,7.30
2018-12-04T04:36:15.029Z,7.30
2018-12-04T04:38:42.681Z,7.30
2018-12-04T04:41:10.391Z,7.30
2018-12-04T04:43:37.961Z,7.30
2018-12-04T04:46:05.682Z,7.30
2018-12-04T04:48:33.381Z,7.30
2018-12-04T04:51:00.999Z,7.30
2018-12-04T04:53:28.588Z,7.40
2018-12-04T04:55:56.237Z,7.40
2018-12-04T04:58:23.883Z,7.40
2018-12-04T05:00:51.484Z,7.40
2018-12-04T05:03:19.377Z,7.50
2018-12-04T05:05:46.991Z,7.50
2018-12-04T05:08:14.612Z,7.50
2018-12-04T05:10:42.250Z,7.50
2018-12-04T05:13:09.859Z,7.50
2018-12-04T05:15:37.504Z,7.60
2018-12-04T05:18:05.466Z,7.60
2018-12-04T05:20:33.093Z,7.60
2018-12-04T05:23:00.678Z,7.60
2018-12-04T05:25:28.273Z,7.60
2018-12-04T05:27:55.901Z,7.60
2018-12-04T05:30:23.582Z,7.60
2018-12-04T05:32:51.311Z,7.60
2018-12-04T05:35:19.985Z,7.60
2018-12-04T05:37:47.643Z,7.60
2018-12-04T05:40:15.240Z,7.70
2018-12-04T05:42:42.819Z,7.70
2018-12-04T05:45:10.434Z,7.80
2018-12-04T05:47:38.046Z,7.80
2018-12-04T05:50:07.012Z,7.80
2018-12-04T05:52:34.636Z,7.80
2018-12-04T05:55:02.261Z,7.80
2018-12-04T05:57:29.863Z,7.70
2018-12-04T05:59:57.427Z,7.60
2018-12-04T06:02:25.057Z,7.60
2018-12-04T06:04:52.671Z,7.60
2018-12-04T06:07:20.281Z,7.60
2018-12-04T06:09:47.895Z,7.50
2018-12-04T06:12:15.490Z,7.50
2018-12-04T06:14:43.045Z,7.40
2018-12-04T06:17:10.733Z,7.40
2018-12-04T06:19:38.359Z,7.30
2018-12-04T06:22:06.007Z,7.30
2018-12-04T06:24:33.608Z,7.20
2018-12-04T06:27:01.365Z,7.20
2018-12-04T06:29:28.973Z,7.20
2018-12-04T06:31:56.562Z,7.20
2018-12-04T06:34:24.162Z,7.10
2018-12-04T06:36:51.825Z,7.10
2018-12-04T06:39:19.543Z,7.10
2018-12-04T06:41:47.139Z,7.00
2018-12-04T06:44:14.709Z,7.00
2018-12-04T06:46:42.294Z,7.00
2018-12-04T06:53:12.107Z,6.90
2018-12-04T06:55:39.713Z,6.90
2018-12-04T06:58:07.334Z,6.90
2018-12-04T07:00:34.995Z,6.90
2018-12-04T07:03:02.617Z,6.90
2018-12-04T07:05:30.285Z,6.80
2018-12-04T07:07:57.944Z,6.80
2018-12-04T07:10:25.574Z,6.70
2018-12-04T07:12:53.157Z,6.70
2018-12-04T07:15:20.722Z,6.70
2018-12-04T07:17:48.329Z,6.70
2018-12-04T07:20:15.919Z,6.70
2018-12-04T07:22:43.594Z,6.70
2018-12-04T07:25:11.221Z,6.60
2018-12-04T07:27:38.825Z,6.60
2018-12-04T07:30:07.990Z,6.60
2018-12-04T07:32:38.761Z,6.60
2018-12-04T07:35:06.845Z,6.70
2018-12-04T07:37:35.381Z,6.70
2018-12-04T07:40:03.533Z,6.60
2018-12-04T07:42:31.176Z,6.60
2018-12-04T07:44:58.869Z,6.70
2018-12-04T07:47:29.949Z,6.70
2018-12-04T07:49:57.523Z,6.70
2018-12-04T07:52:25.175Z,6.70
2018-12-04T07:54:52.903Z,6.70
2018-12-04T07:57:20.527Z,6.70
2018-12-04T07:59:48.345Z,6.80
2018-12-04T08:02:16.077Z,6.80
2018-12-04T08:04:43.694Z,6.90
2018-12-04T08:07:11.353Z,6.90
2018-12-04T08:09:38.964Z,7.00
2018-12-04T08:12:06.606Z,7.00
2018-12-04T08:14:34.271Z,7.00
2018-12-04T08:17:01.889Z,7.10
2018-12-04T08:19:29.523Z,7.10
2018-12-04T08:21:57.119Z,7.10
2018-12-04T08:24:24.707Z,7.10
2018-12-04T08:26:52.275Z,7.10
2018-12-04T08:29:19.894Z,7.00
2018-12-04T08:31:47.540Z,7.10
2018-12-04T08:34:15.149Z,7.00
2018-12-04T08:36:42.766Z,7.10
2018-12-04T08:39:13.089Z,7.00
2018-12-04T08:41:40.137Z,7.20
2018-12-04T08:44:07.781Z,7.30
2018-12-04T08:46:35.348Z,7.40
2018-12-04T08:49:02.993Z,7.50
2018-12-04T08:51:30.699Z,7.60
2018-12-04T08:53:58.279Z,7.60
2018-12-04T08:56:25.892Z,7.60
2018-12-04T08:58:53.562Z,7.70
2018-12-04T09:01:21.221Z,7.80
2018-12-04T09:03:48.828Z,7.80
2018-12-04T09:06:16.459Z,7.90
2018-12-04T09:08:44.068Z,8.00
2018-12-04T09:11:11.778Z,8.10
2018-12-04T09:13:39.394Z,8.20
2018-12-04T09:16:07.013Z,8.20
2018-12-04T09:18:34.813Z,8.20
2018-12-04T09:21:02.484Z,8.30
2018-12-04T09:23:42.617Z,8.50
2018-12-04T09:26:10.339Z,8.50
2018-12-04T09:28:38.077Z,8.50
2018-12-04T09:31:05.816Z,8.60
2018-12-04T09:33:33.496Z,8.60
2018-12-04T09:36:01.184Z,8.70
2018-12-04T09:38:28.788Z,8.60
2018-12-04T09:44:59.582Z,8.50
2018-12-04T09:47:27.804Z,8.40
2018-12-04T09:49:55.467Z,8.30
2018-12-04T09:52:23.045Z,8.30
2018-12-04T09:54:50.657Z,8.30
2018-12-04T09:57:18.267Z,8.30
2018-12-04T09:59:45.942Z,8.40
2018-12-04T10:02:13.524Z,8.40
2018-12-04T10:04:41.156Z,8.50
2018-12-04T10:07:08.732Z,8.50
2018-12-04T10:09:36.294Z,8.60
2018-12-04T10:12:03.977Z,8.70
2018-12-04T10:14:31.577Z,8.80
2018-12-04T10:17:00.110Z,8.90
2018-12-04T10:19:27.708Z,9.10
2018-12-04T10:21:55.961Z,9.40
2018-12-04T10:24:23.697Z,9.90
2018-12-04T10:26:56.958Z,10.30
2018-12-04T10:29:25.385Z,10.50
2018-12-04T10:31:55.996Z,10.80
2018-12-04T10:34:22.625Z,10.90
2018-12-04T10:36:50.291Z,11.10
2018-12-04T10:39:17.870Z,11.40
2018-12-04T10:41:56.317Z,11.70
2018-12-04T10:44:24.009Z,11.90
2018-12-04T10:46:51.697Z,11.90
2018-12-04T10:49:19.367Z,12.10
2018-12-04T10:51:46.984Z,12.40
2018-12-04T10:54:14.689Z,12.50
2018-12-04T10:56:42.234Z,12.50
2018-12-04T10:59:10.215Z,12.70
2018-12-04T11:01:43.433Z,12.90
2018-12-04T11:04:11.105Z,13.10
2018-12-04T11:06:40.777Z,13.50
2018-12-04T11:09:08.626Z,13.70
2018-12-04T11:11:36.215Z,13.70
2018-12-04T11:14:03.875Z,13.90
2018-12-04T11:16:31.531Z,14.20
2018-12-04T11:18:59.198Z,14.50
2018-12-04T11:21:26.847Z,14.50
2018-12-04T11:23:54.513Z,14.50
2018-12-04T11:26:22.147Z,14.60
2018-12-04T11:28:49.793Z,15.00
2018-12-04T11:31:17.445Z,15.20
2018-12-04T11:33:45.043Z,15.10
2018-12-04T11:36:12.717Z,15.30
2018-12-04T11:38:40.380Z,15.30
2018-12-04T11:41:07.992Z,15.60
2018-12-04T11:43:35.689Z,15.70
2018-12-04T11:46:03.461Z,15.70
2018-12-04T11:48:31.067Z,15.80
2018-12-04T11:51:00.265Z,15.80
2018-12-04T11:53:28.337Z,16.30
2018-12-04T11:55:56.006Z,16.20
2018-12-04T11:58:37.874Z,16.30
2018-12-04T12:01:05.675Z,16.40
2018-12-04T12:03:33.398Z,16.40
2018-12-04T12:06:01.066Z,16.80
2018-12-04T12:08:28.678Z,16.50
2018-12-04T12:10:57.018Z,16.70
2018-12-04T12:13:24.617Z,16.00
2018-12-04T12:15:52.225Z,15.20
2018-12-04T12:18:19.815Z,14.50
2018-12-04T12:20:47.444Z,14.30
2018-12-04T12:23:15.021Z,14.20
2018-12-04T12:25:42.651Z,13.50
2018-12-04T12:28:10.284Z,13.30
2018-12-04T12:30:37.965Z,13.10
2018-12-04T12:33:05.560Z,14.10
2018-12-04T12:35:33.227Z,14.50
2018-12-04T12:38:00.890Z,15.80
2018-12-04T12:40:28.555Z,16.50
2018-12-04T12:42:56.201Z,16.70
2018-12-04T12:45:23.947Z,16.30
2018-12-04T12:47:51.610Z,15.60
2018-12-04T12:50:19.279Z,16.30
2018-12-04T12:52:46.953Z,16.90
2018-12-04T12:55:14.619Z,16.70
2018-12-04T12:57:42.268Z,17.10
2018-12-04T13:00:09.947Z,17.40
2018-12-04T13:02:39.541Z,18.20
2018-12-04T13:05:07.314Z,18.60
2018-12-04T13:07:35.004Z,18.10
2018-12-04T13:10:02.910Z,18.00
2018-12-04T13:12:30.592Z,17.80
2018-12-04T13:14:58.252Z,18.10
2018-12-04T13:17:25.896Z,17.60
2018-12-04T13:19:53.596Z,17.40
2018-12-04T13:22:21.345Z,17.20
2018-12-04T13:24:49.001Z,17.50
2018-12-04T13:27:16.674Z,17.50
2018-12-04T13:29:44.307Z,17.20
2018-12-04T13:32:11.946Z,16.90
2018-12-04T13:34:39.613Z,17.20
2018-12-04T13:37:07.322Z,16.90
2018-12-04T13:39:34.979Z,16.90
2018-12-04T13:42:02.629Z,17.30
2018-12-04T13:44:30.378Z,17.70
2018-12-04T13:46:58.103Z,18.10
2018-12-04T13:49:25.847Z,18.20
2018-12-04T13:51:53.476Z,18.20
2018-12-04T13:54:21.103Z,17.70
2018-12-04T13:56:49.123Z,17.40
2018-12-04T13:59:16.729Z,17.50
2018-12-04T14:01:44.396Z,17.40
2018-12-04T14:04:12.085Z,17.70
2018-12-04T14:06:39.706Z,17.30
2018-12-04T14:09:07.841Z,16.90
2018-12-04T14:11:35.666Z,16.30
2018-12-04T14:14:03.442Z,15.70
2018-12-04T14:16:31.028Z,15.30
2018-12-04T14:18:58.612Z,14.80
2018-12-04T14:21:26.320Z,14.50
2018-12-04T14:23:54.096Z,14.40
2018-12-04T14:26:21.893Z,14.10
2018-12-04T14:28:49.576Z,13.90
2018-12-04T14:31:17.325Z,13.70
2018-12-04T14:33:45.146Z,13.60
2018-12-04T14:36:12.944Z,13.30
2018-12-04T14:38:40.648Z,13.30
2018-12-04T14:41:08.300Z,13.30
2018-12-04T14:43:36.064Z,13.20
2018-12-04T14:46:03.748Z,13.20
2018-12-04T14:48:31.498Z,13.20
2018-12-04T14:50:59.194Z,13.10
2018-12-04T14:53:26.940Z,13.10
2018-12-04T14:55:54.609Z,13.10
2018-12-04T14:58:22.377Z,13.00
2018-12-04T15:00:50.049Z,13.00
2018-12-04T15:03:17.697Z,13.00
2018-12-04T15:05:45.373Z,12.90
2018-12-04T15:08:13.099Z,13.00
2018-12-04T15:10:40.776Z,13.30
2018-12-04T15:13:08.486Z,13.20
2018-12-04T15:15:36.135Z,13.10
2018-12-04T15:18:03.830Z,12.80
2018-12-04T15:20:31.523Z,12.60
2018-12-04T15:22:59.296Z,12.50
2018-12-04T15:25:27.002Z,12.20
2018-12-04T15:27:54.754Z,12.10
2018-12-04T15:30:22.336Z,12.00
2018-12-04T15:32:50.077Z,11.80
2018-12-04T15:35:17.716Z,11.80
2018-12-04T15:37:45.401Z,11.60
2018-12-04T15:40:13.279Z,11.40
2018-12-04T15:42:40.902Z,11.30
2018-12-04T15:45:08.662Z,11.10
2018-12-04T15:47:36.257Z,10.90
2018-12-04T15:50:04.268Z,10.80
2018-12-04T15:52:31.868Z,10.70
2018-12-04T15:54:59.532Z,10.60
2018-12-04T15:57:27.164Z,10.50
2018-12-04T15:59:54.792Z,10.40
2018-12-04T16:02:22.406Z,10.30
2018-12-04T16:04:49.964Z,10.20
2018-12-04T16:07:18.103Z,10.10
2018-12-04T16:09:45.841Z,10.00
2018-12-04T16:12:14.108Z,9.90
2018-12-04T16:14:41.781Z,9.90
2018-12-04T16:17:15.109Z,9.80
2018-12-04T16:19:39.061Z,9.80
2018-12-04T16:22:06.723Z,9.70
2018-12-04T16:24:34.391Z,9.50
2018-12-04T16:27:02.049Z,9.50
2018-12-04T16:29:29.704Z,9.60
2018-12-04T16:31:57.443Z,9.60
2018-12-04T16:34:25.060Z,9.50
2018-12-04T16:36:52.640Z,9.50
2018-12-04T16:39:20.255Z,9.50
2018-12-04T16:41:47.930Z,9.50
2018-12-04T16:44:16.183Z,9.40
2018-12-04T16:46:43.909Z,9.40
2018-12-04T16:49:11.540Z,9.40
2018-12-04T16:51:39.286Z,9.30
2018-12-04T16:54:06.945Z,9.30
2018-12-04T16:56:34.555Z,9.30
2018-12-04T16:59:02.220Z,9.30
2018-12-04T17:01:29.821Z,9.20
2018-12-04T17:03:57.521Z,9.20
2018-12-04T17:06:25.173Z,9.20
2018-12-04T17:08:52.819Z,9.30
2018-12-04T17:11:20.438Z,9.30
2018-12-04T17:13:48.109Z,9.20
2018-12-04T17:16:15.981Z,9.20
2018-12-04T17:18:43.894Z,9.10
2018-12-04T17:21:12.598Z,9.00
2018-12-04T17:23:41.491Z,8.90
2018-12-04T17:26:09.461Z,8.80
2018-12-04T17:28:37.223Z,8.80
2018-12-04T17:31:04.941Z,8.80
2018-12-04T17:33:32.615Z,8.80
2018-12-04T17:36:00.190Z,8.80
2018-12-04T17:38:28.425Z,8.80
2018-12-04T17:40:56.101Z,8.80
2018-12-04T17:43:23.775Z,8.80
2018-12-04T17:45:51.499Z,8.70
2018-12-04T17:48:19.346Z,8.70
2018-12-04T17:50:46.996Z,8.70
2018-12-04T17:53:14.806Z,8.70
2018-12-04T17:55:42.534Z,8.60
2018-12-04T17:58:10.172Z,8.50
2018-12-04T18:00:37.845Z,8.40
2018-12-04T18:03:05.515Z,8.50
2018-12-04T18:05:33.295Z,8.40
2018-12-04T18:08:00.948Z,8.50
2018-12-04T18:10:28.656Z,8.40
2018-12-04T18:12:56.377Z,8.40
2018-12-04T18:15:24.061Z,8.40
2018-12-04T18:17:51.691Z,8.30
2018-12-04T18:20:19.386Z,8.30
2018-12-04T18:22:47.089Z,8.30
2018-12-04T18:25:14.902Z,8.30
2018-12-04T18:27:42.576Z,8.30
2018-12-04T18:30:10.261Z,8.40
2018-12-04T18:32:37.932Z,8.40
2018-12-04T18:35:06.286Z,8.30
2018-12-04T18:37:33.919Z,8.20
2018-12-04T18:40:01.577Z,8.20
2018-12-04T18:42:29.229Z,8.20
2018-12-04T18:44:56.878Z,8.20
2018-12-04T18:47:24.553Z,8.20
2018-12-04T18:49:52.282Z,8.10
2018-12-04T18:52:19.950Z,8.00
2018-12-04T18:54:47.660Z,8.10
2018-12-04T18:57:15.421Z,8.10
2018-12-04T18:59:43.046Z,8.00
2018-12-04T19:02:10.689Z,8.10
2018-12-04T19:04:38.382Z,8.10
2018-12-04T19:07:06.026Z,8.00
2018-12-04T19:09:33.795Z,7.90
2018-12-04T19:12:01.485Z,7.90
2018-12-04T19:14:29.154Z,7.80
2018-12-04T19:16:56.869Z,7.90
2018-12-04T19:19:24.559Z,7.90
2018-12-04T19:21:52.182Z,8.00
2018-12-04T19:24:19.872Z,8.00
2018-12-04T19:26:47.673Z,8.00
2018-12-04T19:29:15.302Z,7.90
2018-12-04T19:31:43.008Z,7.90
2018-12-04T19:34:10.723Z,7.90
2018-12-04T19:36:38.375Z,7.90
2018-12-04T19:39:07.836Z,8.00
2018-12-04T19:41:35.502Z,7.90
2018-12-04T19:44:03.479Z,7.90
2018-12-04T19:46:31.130Z,7.80
2018-12-04T19:48:58.716Z,7.70
2018-12-04T19:51:26.386Z,7.80
2018-12-04T19:53:54.066Z,7.70
2018-12-04T19:56:21.750Z,7.80
2018-12-04T19:58:49.468Z,7.70
2018-12-04T20:01:17.143Z,7.60
2018-12-04T20:03:44.898Z,7.60
2018-12-04T20:06:12.708Z,7.60
2018-12-04T20:08:45.984Z,7.60
2018-12-04T20:11:13.804Z,7.50
2018-12-04T20:13:42.398Z,7.50
2018-12-04T20:16:10.760Z,7.60
2018-12-04T20:18:38.553Z,7.60
2018-12-04T20:21:06.982Z,7.50
2018-12-04T20:23:34.845Z,7.40
2018-12-04T20:26:03.193Z,7.40
2018-12-04T20:28:31.577Z,7.40
2018-12-04T20:30:59.812Z,7.40
2018-12-04T20:33:27.582Z,7.40
2018-12-04T20:35:55.909Z,7.30
2018-12-04T20:38:23.564Z,7.40
2018-12-04T20:40:53.705Z,7.30
2018-12-04T20:43:22.009Z,7.40
2018-12-04T20:45:49.840Z,7.40
2018-12-04T20:48:19.165Z,7.30
2018-12-04T20:50:46.792Z,7.40
2018-12-04T20:53:14.505Z,7.40
2018-12-04T20:55:45.457Z,7.40
2018-12-04T20:58:13.369Z,7.50
2018-12-04T21:00:43.747Z,7.50
2018-12-04T21:03:12.011Z,7.50
2018-12-04T21:05:40.855Z,7.50
2018-12-04T21:08:08.578Z,7.40
2018-12-04T21:10:36.988Z,7.40
2018-12-04T21:13:04.641Z,7.40
2018-12-04T21:15:32.515Z,7.40
2018-12-04T21:18:00.176Z,7.30
2018-12-04T21:20:28.453Z,7.40
2018-12-04T21:22:56.836Z,7.40
2018-12-04T21:25:25.620Z,7.30
2018-12-04T21:28:00.933Z,7.30
2018-12-04T21:30:35.131Z,7.30
2018-12-04T21:33:10.103Z,7.30
2018-12-04T21:35:43.396Z,7.30
2018-12-04T21:38:16.659Z,7.20
2018-12-04T21:40:54.619Z,7.20
2018-12-04T21:43:28.455Z,7.20
2018-12-04T21:46:09.182Z,7.10
2018-12-04T21:48:37.043Z,7.10
2018-12-04T21:51:05.361Z,7.10
2018-12-04T21:53:33.077Z,7.20
2018-12-04T21:56:01.481Z,7.20
2018-12-04T21:58:30.009Z,7.20
2018-12-04T22:00:59.173Z,7.20
2018-12-04T22:03:26.816Z,7.20
2018-12-04T22:05:54.813Z,7.20
2018-12-04T22:08:22.540Z,7.20
2018-12-04T22:10:50.875Z,7.10
2018-12-04T22:13:18.504Z,7.10
2018-12-04T22:15:46.137Z,7.00
2018-12-04T22:18:13.834Z,7.00
2018-12-04T22:20:41.468Z,7.00
2018-12-04T22:23:09.106Z,7.00
2018-12-04T22:25:37.215Z,7.00
2018-12-04T22:28:04.981Z,7.10
2018-12-04T22:30:32.636Z,7.10
2018-12-04T22:33:00.378Z,7.10
2018-12-04T22:35:28.070Z,7.10
2018-12-04T22:37:55.926Z,7.10
2018-12-04T22:40:23.568Z,7.10
2018-12-04T22:42:51.331Z,7.10
2018-12-04T22:45:25.362Z,7.10
2018-12-04T22:47:53.781Z,7.10
2018-12-04T22:50:21.476Z,7.10
2018-12-04T22:52:49.184Z,7.20
2018-12-04T22:55:16.899Z,7.20
2018-12-04T22:57:44.586Z,7.20
2018-12-04T23:00:22.536Z,7.20
2018-12-04T23:02:50.168Z,7.20
2018-12-04T23:05:17.813Z,7.20
2018-12-04T23:07:45.474Z,7.20
2018-12-04T23:10:13.253Z,7.20
2018-12-04T23:12:40.929Z,7.20
2018-12-04T23:15:08.813Z,7.20
2018-12-04T23:17:36.494Z,7.20
2018-12-04T23:20:05.480Z,7.20
2018-12-04T23:22:33.128Z,7.10
2018-12-04T23:25:00.810Z,7.10
2018-12-04T23:27:28.495Z,7.10
2018-12-04T23:29:56.144Z,7.10
2018-12-04T23:32:23.772Z,7.10
2018-12-04T23:34:51.469Z,7.10
2018-12-04T23:37:19.185Z,7.10
2018-12-04T23:39:46.782Z,7.10
2018-12-04T23:42:14.454Z,7.10
2018-12-04T23:44:42.154Z,7.10
2018-12-04T23:47:09.779Z,7.10
2018-12-04T23:49:37.447Z,7.10
2018-12-04T23:52:05.077Z,7.10
2018-12-04T23:54:32.808Z,7.00
2018-12-04T23:57:00.435Z,7.10
2018-12-04T23:59:28.124Z,7.10
